sensor_id;sensor_type;location;lat;lon;timestamp;pressure;altitude;pressure_sealevel;temperature;humidity
63287;BME280;49410;55.708;37.522;2023-02-26T00:00:59;97063.81;;;1.60;nan
63287;BME280;49410;55.708;37.522;2023-02-26T00:03:24;97061.66;;;1.55;nan
63287;BME280;49410;55.708;37.522;2023-02-26T00:05:50;97038.13;;;1.49;nan
63287;BME280;49410;55.708;37.522;2023-02-26T00:08:15;97034.56;;;1.48;nan
63287;BME280;49410;55.708;37.522;2023-02-26T00:10:41;97026.28;;;1.58;nan
63287;BME280;49410;55.708;37.522;2023-02-26T00:13:09;97026.94;;;1.60;nan
63287;BME280;49410;55.708;37.522;2023-02-26T00:15:35;97021.09;;;1.57;nan
63287;BME280;49410;55.708;37.522;2023-02-26T00:18:04;97012.81;;;1.58;nan
63287;BME280;49410;55.708;37.522;2023-02-26T00:20:30;97001.03;;;1.59;nan
63287;BME280;49410;55.708;37.522;2023-02-26T00:22:56;96998.00;;;1.54;nan
63287;BME280;49410;55.708;37.522;2023-02-26T00:25:22;96987.91;;;1.56;nan
63287;BME280;49410;55.708;37.522;2023-02-26T00:27:48;96977.97;;;1.57;nan
63287;BME280;49410;55.708;37.522;2023-02-26T00:30:14;96980.84;;;1.55;nan
63287;BME280;49410;55.708;37.522;2023-02-26T00:32:40;96973.72;;;1.62;nan
63287;BME280;49410;55.708;37.522;2023-02-26T00:35:07;96966.69;;;1.53;nan
63287;BME280;49410;55.708;37.522;2023-02-26T00:37:47;96954.56;;;1.57;nan
63287;BME280;49410;55.708;37.522;2023-02-26T00:40:33;96937.72;;;1.55;nan
63287;BME280;49410;55.708;37.522;2023-02-26T00:43:04;96934.38;;;1.53;nan
63287;BME280;49410;55.708;37.522;2023-02-26T00:45:30;96914.16;;;1.57;nan
63287;BME280;49410;55.708;37.522;2023-02-26T00:48:20;96908.94;;;1.55;nan
63287;BME280;49410;55.708;37.522;2023-02-26T00:50:55;96911.94;;;1.61;nan
63287;BME280;49410;55.708;37.522;2023-02-26T00:53:28;96925.94;;;1.56;nan
63287;BME280;49410;55.708;37.522;2023-02-26T00:55:56;96936.78;;;1.48;nan
63287;BME280;49410;55.708;37.522;2023-02-26T00:58:21;96946.75;;;1.39;nan
63287;BME280;49410;55.708;37.522;2023-02-26T01:00:46;96956.97;;;1.52;nan
63287;BME280;49410;55.708;37.522;2023-02-26T01:03:12;96953.97;;;1.47;nan
63287;BME280;49410;55.708;37.522;2023-02-26T01:05:38;96944.94;;;1.39;nan
63287;BME280;49410;55.708;37.522;2023-02-26T01:08:22;96931.63;;;1.38;nan
63287;BME280;49410;55.708;37.522;2023-02-26T01:10:49;96929.25;;;1.43;nan
63287;BME280;49410;55.708;37.522;2023-02-26T01:13:15;96921.28;;;1.50;nan
63287;BME280;49410;55.708;37.522;2023-02-26T01:15:46;96916.50;;;1.37;nan
63287;BME280;49410;55.708;37.522;2023-02-26T01:21:08;96908.22;;;1.38;nan
63287;BME280;49410;55.708;37.522;2023-02-26T01:23:39;96897.41;;;1.47;nan
63287;BME280;49410;55.708;37.522;2023-02-26T01:26:11;96900.94;;;1.47;nan
63287;BME280;49410;55.708;37.522;2023-02-26T01:28:39;96892.31;;;1.29;nan
63287;BME280;49410;55.708;37.522;2023-02-26T01:31:05;96897.13;;;1.42;nan
63287;BME280;49410;55.708;37.522;2023-02-26T01:33:41;96886.50;;;1.40;nan
63287;BME280;49410;55.708;37.522;2023-02-26T01:36:15;96884.00;;;1.38;nan
63287;BME280;49410;55.708;37.522;2023-02-26T01:43:58;96874.91;;;1.39;nan
63287;BME280;49410;55.708;37.522;2023-02-26T01:48:52;96866.34;;;1.36;nan
63287;BME280;49410;55.708;37.522;2023-02-26T01:54:09;96861.31;;;1.33;nan
63287;BME280;49410;55.708;37.522;2023-02-26T01:56:36;96845.03;;;1.26;nan
63287;BME280;49410;55.708;37.522;2023-02-26T01:59:03;96850.91;;;1.30;nan
63287;BME280;49410;55.708;37.522;2023-02-26T02:01:35;96845.03;;;1.26;nan
63287;BME280;49410;55.708;37.522;2023-02-26T02:04:02;96835.66;;;1.22;nan
63287;BME280;49410;55.708;37.522;2023-02-26T02:06:29;96843.69;;;1.30;nan
63287;BME280;49410;55.708;37.522;2023-02-26T02:08:55;96833.31;;;1.19;nan
63287;BME280;49410;55.708;37.522;2023-02-26T02:11:21;96825.13;;;1.12;nan
63287;BME280;49410;55.708;37.522;2023-02-26T02:16:36;96840.19;;;1.21;nan
63287;BME280;49410;55.708;37.522;2023-02-26T02:27:48;96842.00;;;1.06;nan
63287;BME280;49410;55.708;37.522;2023-02-26T02:33:03;96821.97;;;1.08;nan
63287;BME280;49410;55.708;37.522;2023-02-26T02:35:34;96822.25;;;1.14;nan
63287;BME280;49410;55.708;37.522;2023-02-26T02:38:10;96822.09;;;1.15;nan
63287;BME280;49410;55.708;37.522;2023-02-26T02:40:41;96819.88;;;1.19;nan
63287;BME280;49410;55.708;37.522;2023-02-26T02:43:13;96819.22;;;1.17;nan
63287;BME280;49410;55.708;37.522;2023-02-26T02:46:02;96817.88;;;1.13;nan
63287;BME280;49410;55.708;37.522;2023-02-26T02:48:42;96813.81;;;1.17;nan
63287;BME280;49410;55.708;37.522;2023-02-26T02:53:58;96807.63;;;1.16;nan
63287;BME280;49410;55.708;37.522;2023-02-26T02:57:21;96800.72;;;1.14;nan
63287;BME280;49410;55.708;37.522;2023-02-26T02:59:44;96802.50;;;1.21;nan
63287;BME280;49410;55.708;37.522;2023-02-26T03:05:17;96804.47;;;1.28;nan
63287;BME280;49410;55.708;37.522;2023-02-26T03:07:49;96786.47;;;1.28;nan
63287;BME280;49410;55.708;37.522;2023-02-26T03:10:18;96788.69;;;1.24;nan
63287;BME280;49410;55.708;37.522;2023-02-26T03:12:43;96794.75;;;1.27;nan
63287;BME280;49410;55.708;37.522;2023-02-26T03:15:09;96794.81;;;1.33;nan
63287;BME280;49410;55.708;37.522;2023-02-26T03:17:45;96793.09;;;1.41;nan
63287;BME280;49410;55.708;37.522;2023-02-26T03:20:24;96780.22;;;1.28;nan
63287;BME280;49410;55.708;37.522;2023-02-26T03:30:43;96794.84;;;1.48;nan
63287;BME280;49410;55.708;37.522;2023-02-26T03:36:05;96795.25;;;1.45;nan
63287;BME280;49410;55.708;37.522;2023-02-26T03:38:45;96788.28;;;1.51;nan
63287;BME280;49410;55.708;37.522;2023-02-26T03:41:17;96796.53;;;1.49;nan
63287;BME280;49410;55.708;37.522;2023-02-26T03:46:22;96797.41;;;1.65;nan
63287;BME280;49410;55.708;37.522;2023-02-26T03:48:50;96800.47;;;1.62;nan
63287;BME280;49410;55.708;37.522;2023-02-26T03:51:17;96792.94;;;1.57;nan
63287;BME280;49410;55.708;37.522;2023-02-26T03:53:51;96801.00;;;1.57;nan
63287;BME280;49410;55.708;37.522;2023-02-26T03:56:29;96801.38;;;1.54;nan
63287;BME280;49410;55.708;37.522;2023-02-26T03:58:59;96814.22;;;1.67;nan
63287;BME280;49410;55.708;37.522;2023-02-26T04:01:30;96795.25;;;1.60;nan
63287;BME280;49410;55.708;37.522;2023-02-26T04:04:34;96808.66;;;1.68;nan
63287;BME280;49410;55.708;37.522;2023-02-26T04:06:59;96827.97;;;1.87;nan
63287;BME280;49410;55.708;37.522;2023-02-26T04:09:25;96813.38;;;1.81;nan
63287;BME280;49410;55.708;37.522;2023-02-26T04:11:52;96830.22;;;1.83;nan
63287;BME280;49410;55.708;37.522;2023-02-26T04:14:19;96830.97;;;1.92;nan
63287;BME280;49410;55.708;37.522;2023-02-26T04:16:44;96821.00;;;1.78;nan
63287;BME280;49410;55.708;37.522;2023-02-26T04:19:10;96836.94;;;1.88;nan
63287;BME280;49410;55.708;37.522;2023-02-26T04:21:36;96851.13;;;1.96;nan
63287;BME280;49410;55.708;37.522;2023-02-26T04:24:02;96805.03;;;1.76;nan
63287;BME280;49410;55.708;37.522;2023-02-26T04:26:28;96844.81;;;2.04;nan
63287;BME280;49410;55.708;37.522;2023-02-26T04:28:54;96819.06;;;1.86;nan
63287;BME280;49410;55.708;37.522;2023-02-26T04:31:19;96871.78;;;2.04;nan
63287;BME280;49410;55.708;37.522;2023-02-26T04:33:45;96864.44;;;1.98;nan
63287;BME280;49410;55.708;37.522;2023-02-26T04:36:10;96847.88;;;1.86;nan
63287;BME280;49410;55.708;37.522;2023-02-26T04:38:36;96854.56;;;1.90;nan
63287;BME280;49410;55.708;37.522;2023-02-26T04:41:01;96876.81;;;2.07;nan
63287;BME280;49410;55.708;37.522;2023-02-26T04:43:27;96871.47;;;1.99;nan
63287;BME280;49410;55.708;37.522;2023-02-26T04:45:53;96887.97;;;2.04;nan
63287;BME280;49410;55.708;37.522;2023-02-26T04:48:18;96869.91;;;1.90;nan
63287;BME280;49410;55.708;37.522;2023-02-26T04:50:44;96887.38;;;1.94;nan
63287;BME280;49410;55.708;37.522;2023-02-26T04:53:09;96885.59;;;1.86;nan
63287;BME280;49410;55.708;37.522;2023-02-26T04:55:35;96891.56;;;1.96;nan
63287;BME280;49410;55.708;37.522;2023-02-26T04:58:02;96893.16;;;2.06;nan
63287;BME280;49410;55.708;37.522;2023-02-26T05:00:27;96886.09;;;2.05;nan
63287;BME280;49410;55.708;37.522;2023-02-26T05:02:53;96887.59;;;2.07;nan
63287;BME280;49410;55.708;37.522;2023-02-26T05:05:19;96923.13;;;2.11;nan
63287;BME280;49410;55.708;37.522;2023-02-26T05:07:44;96915.47;;;1.99;nan
63287;BME280;49410;55.708;37.522;2023-02-26T05:10:10;96931.34;;;1.94;nan
63287;BME280;49410;55.708;37.522;2023-02-26T05:12:36;96927.94;;;2.00;nan
63287;BME280;49410;55.708;37.522;2023-02-26T05:15:02;96929.88;;;2.07;nan
63287;BME280;49410;55.708;37.522;2023-02-26T05:17:28;96935.63;;;2.04;nan
63287;BME280;49410;55.708;37.522;2023-02-26T05:19:54;96938.31;;;2.04;nan
63287;BME280;49410;55.708;37.522;2023-02-26T05:22:19;96925.19;;;1.85;nan
63287;BME280;49410;55.708;37.522;2023-02-26T05:24:44;96954.41;;;1.97;nan
63287;BME280;49410;55.708;37.522;2023-02-26T05:27:10;96925.75;;;1.81;nan
63287;BME280;49410;55.708;37.522;2023-02-26T05:29:36;96956.19;;;2.05;nan
63287;BME280;49410;55.708;37.522;2023-02-26T05:32:02;96965.59;;;2.09;nan
63287;BME280;49410;55.708;37.522;2023-02-26T05:34:28;96969.09;;;2.09;nan
63287;BME280;49410;55.708;37.522;2023-02-26T05:36:53;96962.97;;;2.00;nan
63287;BME280;49410;55.708;37.522;2023-02-26T05:39:19;96982.34;;;2.19;nan
63287;BME280;49410;55.708;37.522;2023-02-26T05:41:44;96998.53;;;2.19;nan
63287;BME280;49410;55.708;37.522;2023-02-26T05:44:10;96988.19;;;2.08;nan
63287;BME280;49410;55.708;37.522;2023-02-26T05:46:36;96997.31;;;2.22;nan
63287;BME280;49410;55.708;37.522;2023-02-26T05:49:02;96994.59;;;2.07;nan
63287;BME280;49410;55.708;37.522;2023-02-26T05:51:27;97012.13;;;2.26;nan
63287;BME280;49410;55.708;37.522;2023-02-26T05:53:53;97013.06;;;2.33;nan
63287;BME280;49410;55.708;37.522;2023-02-26T05:56:19;97017.06;;;2.37;nan
63287;BME280;49410;55.708;37.522;2023-02-26T05:58:45;97017.69;;;2.24;nan
63287;BME280;49410;55.708;37.522;2023-02-26T06:01:10;97023.09;;;2.39;nan
63287;BME280;49410;55.708;37.522;2023-02-26T06:03:36;97009.31;;;2.19;nan
63287;BME280;49410;55.708;37.522;2023-02-26T06:06:04;97015.56;;;2.35;nan
63287;BME280;49410;55.708;37.522;2023-02-26T06:08:29;97022.28;;;2.39;nan
63287;BME280;49410;55.708;37.522;2023-02-26T06:10:55;97011.28;;;2.40;nan
63287;BME280;49410;55.708;37.522;2023-02-26T06:13:20;97020.41;;;2.39;nan
63287;BME280;49410;55.708;37.522;2023-02-26T06:15:49;97039.47;;;2.38;nan
63287;BME280;49410;55.708;37.522;2023-02-26T06:18:16;97028.81;;;2.44;nan
63287;BME280;49410;55.708;37.522;2023-02-26T06:20:42;97029.34;;;2.40;nan
63287;BME280;49410;55.708;37.522;2023-02-26T06:23:07;97034.16;;;2.29;nan
63287;BME280;49410;55.708;37.522;2023-02-26T06:25:33;97037.63;;;2.38;nan
63287;BME280;49410;55.708;37.522;2023-02-26T06:27:59;97039.34;;;2.54;nan
63287;BME280;49410;55.708;37.522;2023-02-26T06:30:25;97037.28;;;2.56;nan
63287;BME280;49410;55.708;37.522;2023-02-26T06:32:50;97048.75;;;2.73;nan
63287;BME280;49410;55.708;37.522;2023-02-26T06:35:16;97043.53;;;2.72;nan
63287;BME280;49410;55.708;37.522;2023-02-26T06:37:42;97068.00;;;2.85;nan
63287;BME280;49410;55.708;37.522;2023-02-26T06:40:08;97055.81;;;2.74;nan
63287;BME280;49410;55.708;37.522;2023-02-26T06:42:35;97076.78;;;2.87;nan
63287;BME280;49410;55.708;37.522;2023-02-26T06:45:01;97077.22;;;2.76;nan
63287;BME280;49410;55.708;37.522;2023-02-26T06:47:27;97066.78;;;2.58;nan
63287;BME280;49410;55.708;37.522;2023-02-26T06:49:52;97088.31;;;2.66;nan
63287;BME280;49410;55.708;37.522;2023-02-26T06:52:18;97088.78;;;2.70;nan
63287;BME280;49410;55.708;37.522;2023-02-26T06:54:44;97083.34;;;2.55;nan
63287;BME280;49410;55.708;37.522;2023-02-26T06:57:09;97084.94;;;2.64;nan
63287;BME280;49410;55.708;37.522;2023-02-26T06:59:35;97088.78;;;2.70;nan
63287;BME280;49410;55.708;37.522;2023-02-26T07:02:00;97105.91;;;2.77;nan
63287;BME280;49410;55.708;37.522;2023-02-26T07:04:26;97093.22;;;2.62;nan
63287;BME280;49410;55.708;37.522;2023-02-26T07:06:51;97103.59;;;2.74;nan
63287;BME280;49410;55.708;37.522;2023-02-26T07:09:17;97102.81;;;2.65;nan
63287;BME280;49410;55.708;37.522;2023-02-26T07:11:44;97103.75;;;2.72;nan
63287;BME280;49410;55.708;37.522;2023-02-26T07:14:09;97129.00;;;2.79;nan
63287;BME280;49410;55.708;37.522;2023-02-26T07:16:35;97127.97;;;2.80;nan
63287;BME280;49410;55.708;37.522;2023-02-26T07:19:00;97113.28;;;2.60;nan
63287;BME280;49410;55.708;37.522;2023-02-26T07:21:26;97121.81;;;2.72;nan
63287;BME280;49410;55.708;37.522;2023-02-26T07:23:52;97110.34;;;2.70;nan
63287;BME280;49410;55.708;37.522;2023-02-26T07:26:17;97126.03;;;2.89;nan
63287;BME280;49410;55.708;37.522;2023-02-26T07:28:43;97128.69;;;2.74;nan
63287;BME280;49410;55.708;37.522;2023-02-26T07:31:08;97120.59;;;2.74;nan
63287;BME280;49410;55.708;37.522;2023-02-26T07:33:34;97119.22;;;2.78;nan
63287;BME280;49410;55.708;37.522;2023-02-26T07:36:00;97120.44;;;2.91;nan
63287;BME280;49410;55.708;37.522;2023-02-26T07:38:26;97134.88;;;2.83;nan
63287;BME280;49410;55.708;37.522;2023-02-26T07:40:55;97129.75;;;3.03;nan
63287;BME280;49410;55.708;37.522;2023-02-26T07:58:45;97152.97;;;3.13;nan
63287;BME280;49410;55.708;37.522;2023-02-26T08:01:10;97142.63;;;3.16;nan
63287;BME280;49410;55.708;37.522;2023-02-26T08:03:36;97164.72;;;3.20;nan
63287;BME280;49410;55.708;37.522;2023-02-26T08:06:01;97188.75;;;3.45;nan
63287;BME280;49410;55.708;37.522;2023-02-26T09:04:13;97261.06;;;3.57;nan
63287;BME280;49410;55.708;37.522;2023-02-26T09:06:38;97259.94;;;3.37;nan
63287;BME280;49410;55.708;37.522;2023-02-26T09:09:04;97275.50;;;3.35;nan
63287;BME280;49410;55.708;37.522;2023-02-26T09:11:29;97265.50;;;3.20;nan
63287;BME280;49410;55.708;37.522;2023-02-26T09:13:57;97256.03;;;3.01;nan
63287;BME280;49410;55.708;37.522;2023-02-26T09:16:28;97287.28;;;2.95;nan
63287;BME280;49410;55.708;37.522;2023-02-26T09:18:54;97289.50;;;2.92;nan
63287;BME280;49410;55.708;37.522;2023-02-26T09:21:20;97291.97;;;2.78;nan
63287;BME280;49410;55.708;37.522;2023-02-26T09:23:46;97294.50;;;2.80;nan
63287;BME280;49410;55.708;37.522;2023-02-26T09:26:12;97292.06;;;2.85;nan
63287;BME280;49410;55.708;37.522;2023-02-26T09:28:38;97289.97;;;2.95;nan
63287;BME280;49410;55.708;37.522;2023-02-26T09:31:03;97293.53;;;2.96;nan
63287;BME280;49410;55.708;37.522;2023-02-26T09:33:31;97297.53;;;3.00;nan
63287;BME280;49410;55.708;37.522;2023-02-26T09:35:57;97296.38;;;3.03;nan
63287;BME280;49410;55.708;37.522;2023-02-26T09:38:23;97301.50;;;3.13;nan
63287;BME280;49410;55.708;37.522;2023-02-26T09:46:23;97314.69;;;3.31;nan
63287;BME280;49410;55.708;37.522;2023-02-26T09:54:41;97320.53;;;2.96;nan
63287;BME280;49410;55.708;37.522;2023-02-26T09:57:11;97317.84;;;2.96;nan
63287;BME280;49410;55.708;37.522;2023-02-26T09:59:39;97323.03;;;2.98;nan
63287;BME280;49410;55.708;37.522;2023-02-26T10:05:41;97334.44;;;3.08;nan
63287;BME280;49410;55.708;37.522;2023-02-26T10:08:17;97354.16;;;2.93;nan
63287;BME280;49410;55.708;37.522;2023-02-26T10:10:57;97336.31;;;2.84;nan
63287;BME280;49410;55.708;37.522;2023-02-26T10:13:46;97344.09;;;3.02;nan
63287;BME280;49410;55.708;37.522;2023-02-26T10:16:18;97346.28;;;3.07;nan
63287;BME280;49410;55.708;37.522;2023-02-26T10:18:51;97339.63;;;3.18;nan
63287;BME280;49410;55.708;37.522;2023-02-26T10:21:24;97356.84;;;3.40;nan
63287;BME280;49410;55.708;37.522;2023-02-26T10:23:56;97342.25;;;3.26;nan
63287;BME280;49410;55.708;37.522;2023-02-26T10:26:25;97353.13;;;3.41;nan
63287;BME280;49410;55.708;37.522;2023-02-26T10:28:59;97352.34;;;3.32;nan
63287;BME280;49410;55.708;37.522;2023-02-26T10:34:43;97377.59;;;3.16;nan
63287;BME280;49410;55.708;37.522;2023-02-26T10:37:37;97391.69;;;3.35;nan
63287;BME280;49410;55.708;37.522;2023-02-26T10:40:46;97374.41;;;3.36;nan
63287;BME280;49410;55.708;37.522;2023-02-26T10:43:29;97365.38;;;3.29;nan
63287;BME280;49410;55.708;37.522;2023-02-26T10:49:09;97385.25;;;3.59;nan
63287;BME280;49410;55.708;37.522;2023-02-26T10:51:41;97385.41;;;3.57;nan
63287;BME280;49410;55.708;37.522;2023-02-26T10:57:03;97379.06;;;3.27;nan
63287;BME280;49410;55.708;37.522;2023-02-26T10:59:30;97384.22;;;3.37;nan
63287;BME280;49410;55.708;37.522;2023-02-26T11:01:56;97373.38;;;3.45;nan
63287;BME280;49410;55.708;37.522;2023-02-26T11:04:25;97380.94;;;3.50;nan
63287;BME280;49410;55.708;37.522;2023-02-26T11:06:55;97384.72;;;3.40;nan
63287;BME280;49410;55.708;37.522;2023-02-26T11:09:24;97369.56;;;3.31;nan
63287;BME280;49410;55.708;37.522;2023-02-26T11:11:55;97390.53;;;3.52;nan
63287;BME280;49410;55.708;37.522;2023-02-26T11:14:25;97359.84;;;3.45;nan
63287;BME280;49410;55.708;37.522;2023-02-26T11:16:54;97405.03;;;3.75;nan
63287;BME280;49410;55.708;37.522;2023-02-26T11:19:40;97375.47;;;3.73;nan
63287;BME280;49410;55.708;37.522;2023-02-26T11:22:12;97405.81;;;3.83;nan
63287;BME280;49410;55.708;37.522;2023-02-26T11:24:45;97397.94;;;3.73;nan
63287;BME280;49410;55.708;37.522;2023-02-26T11:27:20;97396.13;;;3.89;nan
63287;BME280;49410;55.708;37.522;2023-02-26T11:29:48;97391.44;;;3.83;nan
63287;BME280;49410;55.708;37.522;2023-02-26T11:32:23;97401.53;;;3.89;nan
63287;BME280;49410;55.708;37.522;2023-02-26T11:34:53;97396.28;;;3.87;nan
63287;BME280;49410;55.708;37.522;2023-02-26T11:37:23;97396.28;;;3.87;nan
63287;BME280;49410;55.708;37.522;2023-02-26T11:39:56;97402.84;;;3.93;nan
63287;BME280;49410;55.708;37.522;2023-02-26T11:42:23;97398.59;;;3.76;nan
63287;BME280;49410;55.708;37.522;2023-02-26T11:44:50;97390.69;;;3.74;nan
63287;BME280;49410;55.708;37.522;2023-02-26T11:47:20;97400.53;;;3.67;nan
63287;BME280;49410;55.708;37.522;2023-02-26T11:49:54;97397.63;;;3.53;nan
63287;BME280;49410;55.708;37.522;2023-02-26T11:52:34;97396.88;;;3.60;nan
63287;BME280;49410;55.708;37.522;2023-02-26T11:55:15;97386.88;;;3.45;nan
63287;BME280;49410;55.708;37.522;2023-02-26T11:57:42;97405.28;;;3.41;nan
63287;BME280;49410;55.708;37.522;2023-02-26T12:00:18;97409.44;;;3.52;nan
63287;BME280;49410;55.708;37.522;2023-02-26T12:02:44;97398.63;;;3.52;nan
63287;BME280;49410;55.708;37.522;2023-02-26T12:05:15;97402.81;;;3.55;nan
63287;BME280;49410;55.708;37.522;2023-02-26T12:07:40;97409.19;;;3.62;nan
63287;BME280;49410;55.708;37.522;2023-02-26T12:10:15;97414.84;;;3.52;nan
63287;BME280;49410;55.708;37.522;2023-02-26T12:12:54;97427.81;;;3.57;nan
63287;BME280;49410;55.708;37.522;2023-02-26T12:15:27;97441.03;;;3.52;nan
63287;BME280;49410;55.708;37.522;2023-02-26T12:20:55;97438.44;;;3.35;nan
63287;BME280;49410;55.708;37.522;2023-02-26T12:26:28;97453.56;;;3.21;nan
63287;BME280;49410;55.708;37.522;2023-02-26T12:35:01;97470.97;;;3.10;nan
63287;BME280;49410;55.708;37.522;2023-02-26T12:45:38;97479.66;;;2.98;nan
63287;BME280;49410;55.708;37.522;2023-02-26T12:56:27;97499.47;;;2.82;nan
63287;BME280;49410;55.708;37.522;2023-02-26T13:07:59;97515.78;;;2.48;nan
63287;BME280;49410;55.708;37.522;2023-02-26T13:13:29;97508.53;;;2.16;nan
63287;BME280;49410;55.708;37.522;2023-02-26T13:18:47;97537.03;;;2.02;nan
63287;BME280;49410;55.708;37.522;2023-02-26T13:21:26;97531.47;;;1.79;nan
63287;BME280;49410;55.708;37.522;2023-02-26T13:24:06;97532.97;;;1.73;nan
63287;BME280;49410;55.708;37.522;2023-02-26T13:26:33;97526.22;;;1.61;nan
63287;BME280;49410;55.708;37.522;2023-02-26T13:29:17;97549.31;;;1.72;nan
63287;BME280;49410;55.708;37.522;2023-02-26T13:32:04;97557.41;;;1.72;nan
63287;BME280;49410;55.708;37.522;2023-02-26T13:34:53;97557.91;;;1.67;nan
63287;BME280;49410;55.708;37.522;2023-02-26T13:37:26;97562.75;;;1.55;nan
63287;BME280;49410;55.708;37.522;2023-02-26T13:58:54;97612.38;;;1.01;nan
63287;BME280;49410;55.708;37.522;2023-02-26T14:01:31;97607.81;;;1.02;nan
63287;BME280;49410;55.708;37.522;2023-02-26T14:04:07;97614.38;;;0.99;nan
63287;BME280;49410;55.708;37.522;2023-02-26T14:06:44;97598.59;;;0.78;nan
63287;BME280;49410;55.708;37.522;2023-02-26T14:14:39;97620.97;;;0.79;nan
63287;BME280;49410;55.708;37.522;2023-02-26T14:19:42;97646.72;;;0.81;nan
63287;BME280;49410;55.708;37.522;2023-02-26T14:24:38;97666.91;;;0.59;nan
63287;BME280;49410;55.708;37.522;2023-02-26T14:29:52;97678.84;;;0.38;nan
63287;BME280;49410;55.708;37.522;2023-02-26T14:35:24;97678.47;;;0.33;nan
63287;BME280;49410;55.708;37.522;2023-02-26T14:41:33;97664.34;;;0.13;nan
63287;BME280;49410;55.708;37.522;2023-02-26T14:44:17;97665.81;;;0.25;nan
63287;BME280;49410;55.708;37.522;2023-02-26T14:46:46;97681.38;;;0.22;nan
63287;BME280;49410;55.708;37.522;2023-02-26T14:49:40;97681.22;;;0.05;nan
63287;BME280;49410;55.708;37.522;2023-02-26T15:06:49;97726.84;;;-0.03;nan
63287;BME280;49410;55.708;37.522;2023-02-26T15:14:27;97751.84;;;-0.03;nan
63287;BME280;49410;55.708;37.522;2023-02-26T15:25:26;97764.16;;;0.00;nan
63287;BME280;49410;55.708;37.522;2023-02-26T15:27:53;97767.84;;;-0.01;nan
63287;BME280;49410;55.708;37.522;2023-02-26T15:30:19;97751.38;;;-0.16;nan
63287;BME280;49410;55.708;37.522;2023-02-26T15:32:45;97755.06;;;-0.17;nan
63287;BME280;49410;55.708;37.522;2023-02-26T15:35:16;97768.13;;;-0.04;nan
63287;BME280;49410;55.708;37.522;2023-02-26T15:37:48;97777.03;;;-0.04;nan
63287;BME280;49410;55.708;37.522;2023-02-26T15:40:14;97779.25;;;-0.17;nan
63287;BME280;49410;55.708;37.522;2023-02-26T15:42:41;97788.03;;;-0.25;nan
63287;BME280;49410;55.708;37.522;2023-02-26T15:45:35;97806.56;;;-0.32;nan
63287;BME280;49410;55.708;37.522;2023-02-26T15:48:06;97783.25;;;-0.31;nan
63287;BME280;49410;55.708;37.522;2023-02-26T15:50:40;97784.38;;;-0.34;nan
63287;BME280;49410;55.708;37.522;2023-02-26T15:53:09;97807.66;;;-0.24;nan
63287;BME280;49410;55.708;37.522;2023-02-26T15:55:42;97797.13;;;-0.36;nan
63287;BME280;49410;55.708;37.522;2023-02-26T15:58:13;97809.09;;;-0.20;nan
63287;BME280;49410;55.708;37.522;2023-02-26T16:00:43;97816.31;;;-0.21;nan
63287;BME280;49410;55.708;37.522;2023-02-26T16:03:09;97821.53;;;-0.19;nan
63287;BME280;49410;55.708;37.522;2023-02-26T16:05:35;97819.53;;;-0.17;nan
63287;BME280;49410;55.708;37.522;2023-02-26T16:08:00;97813.19;;;-0.16;nan
63287;BME280;49410;55.708;37.522;2023-02-26T16:10:39;97823.94;;;-0.16;nan
63287;BME280;49410;55.708;37.522;2023-02-26T16:13:12;97825.66;;;-0.25;nan
63287;BME280;49410;55.708;37.522;2023-02-26T16:15:39;97839.03;;;-0.15;nan
63287;BME280;49410;55.708;37.522;2023-02-26T16:18:31;97839.19;;;-0.17;nan
63287;BME280;49410;55.708;37.522;2023-02-26T16:20:59;97837.56;;;-0.37;nan
63287;BME280;49410;55.708;37.522;2023-02-26T16:23:47;97850.53;;;-0.23;nan
63287;BME280;49410;55.708;37.522;2023-02-26T16:26:31;97842.50;;;-0.33;nan
63287;BME280;49410;55.708;37.522;2023-02-26T16:29:01;97843.75;;;-0.27;nan
63287;BME280;49410;55.708;37.522;2023-02-26T16:31:29;97840.72;;;-0.52;nan
63287;BME280;49410;55.708;37.522;2023-02-26T16:34:00;97862.22;;;-0.52;nan
63287;BME280;49410;55.708;37.522;2023-02-26T16:36:40;97862.59;;;-0.47;nan
63287;BME280;49410;55.708;37.522;2023-02-26T16:41:34;97857.00;;;-0.63;nan
63287;BME280;49410;55.708;37.522;2023-02-26T16:44:03;97870.53;;;-0.55;nan
63287;BME280;49410;55.708;37.522;2023-02-26T16:46:38;97889.78;;;-0.59;nan
63287;BME280;49410;55.708;37.522;2023-02-26T16:49:26;97864.50;;;-0.76;nan
63287;BME280;49410;55.708;37.522;2023-02-26T16:51:55;97876.50;;;-0.90;nan
63287;BME280;49410;55.708;37.522;2023-02-26T16:56:56;97894.72;;;-0.84;nan
63287;BME280;49410;55.708;37.522;2023-02-26T16:59:29;97894.16;;;-0.98;nan
63287;BME280;49410;55.708;37.522;2023-02-26T17:02:02;97912.78;;;-1.06;nan
63287;BME280;49410;55.708;37.522;2023-02-26T17:04:32;97923.25;;;-1.03;nan
63287;BME280;49410;55.708;37.522;2023-02-26T17:06:59;97928.47;;;-1.11;nan
63287;BME280;49410;55.708;37.522;2023-02-26T17:14:37;97933.13;;;-1.23;nan
63287;BME280;49410;55.708;37.522;2023-02-26T17:17:04;97940.72;;;-1.28;nan
63287;BME280;49410;55.708;37.522;2023-02-26T17:19:30;97943.81;;;-1.33;nan
63287;BME280;49410;55.708;37.522;2023-02-26T17:21:56;97971.81;;;-1.16;nan
63287;BME280;49410;55.708;37.522;2023-02-26T17:24:30;97945.81;;;-1.25;nan
63287;BME280;49410;55.708;37.522;2023-02-26T17:26:56;97944.13;;;-1.16;nan
63287;BME280;49410;55.708;37.522;2023-02-26T17:29:31;97954.69;;;-1.25;nan
63287;BME280;49410;55.708;37.522;2023-02-26T17:31:56;97959.22;;;-1.25;nan
63287;BME280;49410;55.708;37.522;2023-02-26T17:34:22;97972.50;;;-1.23;nan
63287;BME280;49410;55.708;37.522;2023-02-26T17:36:48;97975.31;;;-1.25;nan
63287;BME280;49410;55.708;37.522;2023-02-26T17:39:14;97980.38;;;-1.32;nan
63287;BME280;49410;55.708;37.522;2023-02-26T17:41:44;97981.22;;;-1.31;nan
63287;BME280;49410;55.708;37.522;2023-02-26T17:44:10;97966.97;;;-1.32;nan
63287;BME280;49410;55.708;37.522;2023-02-26T17:46:36;97977.44;;;-1.29;nan
63287;BME280;49410;55.708;37.522;2023-02-26T17:49:01;97996.78;;;-1.25;nan
63287;BME280;49410;55.708;37.522;2023-02-26T17:51:27;97986.47;;;-1.30;nan
63287;BME280;49410;55.708;37.522;2023-02-26T17:53:53;98001.25;;;-1.35;nan
63287;BME280;49410;55.708;37.522;2023-02-26T17:56:25;97998.59;;;-1.26;nan